Terminal Aerodrome Forecast
Issued by NWS

Home | Current Version | Previous Version | Text Only | Print | Product List | Glossary On
Versions: 1 2 3 4 5 6 7 8 9 10 11 12 13
000
FTUS43 KDLH 250500
TAFBRD
TAF
KBRD 250520Z 2506/2606 32006KT P6SM SCT150
     FM251500 01007KT P6SM BKN120
     FM251800 35008KT P6SM SCT025 BKN080
     FM260000 34008KT P6SM SCT100=

USA.gov is the U.S. government's official web portal to all federal, state and local government web resources and services.